createdAt,value
2023-04-17T03:02:05.129Z,11.83
2023-04-17T03:04:34.501Z,11.87
2023-04-17T03:07:01.395Z,12.80
2023-04-17T03:09:28.254Z,12.23
2023-04-17T03:11:55.413Z,13.03
2023-04-17T03:14:22.322Z,11.97
2023-04-17T03:16:49.375Z,13.30
2023-04-17T03:19:17.633Z,12.93
2023-04-17T03:21:44.477Z,13.00
2023-04-17T03:24:12.816Z,12.83
2023-04-17T03:26:39.707Z,13.13
2023-04-17T03:29:12.127Z,13.30
2023-04-17T03:31:40.367Z,13.43
2023-04-17T03:34:07.996Z,12.77
2023-04-17T03:36:36.370Z,12.40
2023-04-17T03:39:04.173Z,13.23
2023-04-17T03:41:32.006Z,13.10
2023-04-17T03:43:59.113Z,12.73
2023-04-17T03:46:26.124Z,11.93
2023-04-17T03:48:53.448Z,11.23
2023-04-17T03:51:20.443Z,12.10
2023-04-17T03:53:49.871Z,12.70
2023-04-17T03:56:17.267Z,12.40
2023-04-17T03:58:45.337Z,11.30
2023-04-17T04:01:15.711Z,12.23
2023-04-17T04:04:00.203Z,12.20
2023-04-17T04:06:29.840Z,12.60
2023-04-17T04:08:58.906Z,12.33
2023-04-17T04:11:25.936Z,13.23
2023-04-17T04:13:52.860Z,12.57
2023-04-17T04:16:19.782Z,12.53
2023-04-17T04:18:47.071Z,12.67
2023-04-17T04:21:15.617Z,13.30
2023-04-17T04:23:45.526Z,12.73
2023-04-17T04:26:17.016Z,12.27
2023-04-17T04:28:49.510Z,11.93
2023-04-17T04:31:30.627Z,13.13
2023-04-17T04:34:00.074Z,13.50
2023-04-17T04:36:29.933Z,12.40
2023-04-17T04:39:20.610Z,12.40
2023-04-17T04:41:52.574Z,12.50
2023-04-17T04:44:22.883Z,13.17
2023-04-17T04:46:55.294Z,13.13
2023-04-17T04:49:22.299Z,13.23
2023-04-17T04:51:49.423Z,12.90
2023-04-17T04:54:16.540Z,12.80
2023-04-17T04:56:51.556Z,12.37
2023-04-17T04:59:18.473Z,12.70
2023-04-17T05:01:54.111Z,11.73
2023-04-17T05:04:23.680Z,12.90
2023-04-17T05:06:55.227Z,12.53
2023-04-17T05:09:22.868Z,11.87
2023-04-17T05:11:54.629Z,12.57
2023-04-17T05:14:22.166Z,12.20
2023-04-17T05:16:49.216Z,12.27
2023-04-17T05:19:16.503Z,11.70
2023-04-17T05:21:49.892Z,12.73
2023-04-17T05:24:18.811Z,12.60
2023-04-17T05:26:45.789Z,12.40
2023-04-17T05:29:14.772Z,12.90
2023-04-17T05:31:42.073Z,12.03
2023-04-17T05:34:20.222Z,13.27
2023-04-17T05:36:47.835Z,12.73
2023-04-17T05:39:14.962Z,12.17
2023-04-17T05:41:41.804Z,12.53
2023-04-17T05:44:08.788Z,12.37
2023-04-17T05:46:37.043Z,12.53
2023-04-17T05:49:05.029Z,12.23
2023-04-17T05:51:31.897Z,11.97
2023-04-17T05:53:58.841Z,12.17
2023-04-17T05:56:25.946Z,12.53
2023-04-17T05:58:53.446Z,12.10
2023-04-17T06:01:22.393Z,11.43
2023-04-17T06:03:54.126Z,11.20
2023-04-17T06:06:26.189Z,11.60
2023-04-17T06:08:54.480Z,12.00
2023-04-17T06:11:23.159Z,11.83
2023-04-17T06:13:50.390Z,11.63
2023-04-17T06:16:18.362Z,11.37
2023-04-17T06:18:47.714Z,11.33
2023-04-17T06:21:16.305Z,12.27
2023-04-17T06:23:43.152Z,11.87
2023-04-17T06:26:10.982Z,10.93
2023-04-17T06:28:39.535Z,11.70
2023-04-17T06:31:06.408Z,11.13
2023-04-17T06:33:34.087Z,12.13
2023-04-17T06:36:01.165Z,11.70
2023-04-17T06:38:40.157Z,11.50
2023-04-17T06:41:07.825Z,12.13
2023-04-17T06:43:36.947Z,11.30
2023-04-17T06:46:13.068Z,11.67
2023-04-17T06:48:39.970Z,11.67
2023-04-17T06:51:06.903Z,10.83
2023-04-17T06:53:33.788Z,11.07
2023-04-17T06:56:01.967Z,11.40
2023-04-17T06:58:28.787Z,10.90
2023-04-17T07:00:55.727Z,11.57
2023-04-17T07:03:22.754Z,10.83
2023-04-17T07:05:50.569Z,10.70
2023-04-17T07:08:19.405Z,10.67
2023-04-17T07:10:46.356Z,9.83
2023-04-17T07:13:14.597Z,9.57
2023-04-17T07:15:41.753Z,10.00
2023-04-17T07:18:08.935Z,9.87
2023-04-17T07:20:35.808Z,9.87
2023-04-17T07:23:02.730Z,9.63
2023-04-17T07:25:29.615Z,10.33
2023-04-17T07:27:56.923Z,9.17
2023-04-17T07:30:25.532Z,8.87
2023-04-17T07:32:52.646Z,9.33
2023-04-17T07:35:19.568Z,9.67
2023-04-17T07:37:46.458Z,8.97
2023-04-17T07:40:13.613Z,9.30
2023-04-17T07:42:40.637Z,8.87
2023-04-17T07:45:08.768Z,8.50
2023-04-17T07:47:37.091Z,8.37
2023-04-17T07:50:04.504Z,8.53
2023-04-17T07:52:31.701Z,8.83
2023-04-17T07:54:58.634Z,8.53
2023-04-17T07:57:26.466Z,8.67
2023-04-17T07:59:53.328Z,8.37
2023-04-17T08:02:21.320Z,8.23
2023-04-17T08:04:52.342Z,8.90
2023-04-17T08:07:20.207Z,8.40
2023-04-17T08:09:47.193Z,8.13
2023-04-17T08:12:14.026Z,8.37
2023-04-17T08:14:40.943Z,8.20
2023-04-17T08:17:08.867Z,7.63
2023-04-17T08:19:35.950Z,7.30
2023-04-17T08:22:06.058Z,7.47
2023-04-17T08:24:32.977Z,7.43
2023-04-17T08:26:59.936Z,7.47
2023-04-17T08:29:26.951Z,7.17
2023-04-17T08:32:06.817Z,6.83
2023-04-17T08:34:40.673Z,7.43
2023-04-17T08:37:08.900Z,6.87
2023-04-17T08:39:35.767Z,7.40
2023-04-17T08:42:07.823Z,7.03
2023-04-17T08:44:35.652Z,7.20
2023-04-17T08:47:04.484Z,6.93
2023-04-17T08:49:35.033Z,7.00
2023-04-17T08:52:04.007Z,7.03
2023-04-17T08:54:35.083Z,6.67
2023-04-17T08:57:03.699Z,6.70
2023-04-17T08:59:30.973Z,6.47
2023-04-17T09:02:02.685Z,6.37
2023-04-17T09:04:40.512Z,6.30
2023-04-17T09:07:08.768Z,6.67
2023-04-17T09:09:50.493Z,6.87
2023-04-17T09:12:17.850Z,5.77
2023-04-17T09:14:44.814Z,6.50
2023-04-17T09:17:11.890Z,6.30
2023-04-17T09:19:58.946Z,6.67
2023-04-17T09:22:25.785Z,6.80
2023-04-17T09:24:54.862Z,6.83
2023-04-17T09:27:24.396Z,6.17
2023-04-17T09:29:59.012Z,6.33
2023-04-17T09:32:26.440Z,5.73
2023-04-17T09:34:53.650Z,5.83
2023-04-17T09:37:21.028Z,6.17
2023-04-17T09:40:00.236Z,6.00
2023-04-17T09:42:27.736Z,5.23
2023-04-17T09:44:55.014Z,5.60
2023-04-17T09:47:22.865Z,5.80
2023-04-17T09:49:52.590Z,5.60
2023-04-17T09:52:21.364Z,4.53
2023-04-17T09:54:51.151Z,4.63
2023-04-17T09:57:19.652Z,4.33
2023-04-17T09:59:50.022Z,4.60
2023-04-17T10:02:18.881Z,4.43
2023-04-17T10:04:47.379Z,4.60
2023-04-17T10:07:14.494Z,4.03
2023-04-17T10:09:42.313Z,4.90
2023-04-17T10:12:13.478Z,4.37
2023-04-17T10:14:46.565Z,4.57
2023-04-17T10:17:23.574Z,4.27
2023-04-17T10:19:50.749Z,4.20
2023-04-17T10:22:29.716Z,4.43
2023-04-17T10:25:22.275Z,4.30
2023-04-17T10:27:54.411Z,4.30
2023-04-17T10:30:23.846Z,4.40
2023-04-17T10:33:22.142Z,4.57
2023-04-17T10:35:49.471Z,4.27
2023-04-17T10:38:18.506Z,4.60
2023-04-17T10:40:45.709Z,5.23
2023-04-17T10:43:14.672Z,5.50
2023-04-17T10:45:57.427Z,5.47
2023-04-17T10:48:28.526Z,5.97
2023-04-17T10:50:56.130Z,5.90
2023-04-17T10:53:40.532Z,6.10
2023-04-17T10:56:08.019Z,6.57
2023-04-17T10:58:38.738Z,6.87
2023-04-17T11:01:11.442Z,6.30
2023-04-17T11:03:39.100Z,6.20
2023-04-17T11:06:07.193Z,6.27
2023-04-17T11:08:34.228Z,6.10
2023-04-17T11:11:01.182Z,6.23
2023-04-17T11:13:33.767Z,6.13
2023-04-17T11:16:03.060Z,6.20
2023-04-17T11:18:31.522Z,5.77
2023-04-17T11:20:58.430Z,5.53
2023-04-17T11:23:30.171Z,5.00
2023-04-17T11:25:57.042Z,5.73
2023-04-17T11:28:24.006Z,5.33
2023-04-17T11:30:51.277Z,5.23
2023-04-17T11:33:18.219Z,5.20
2023-04-17T11:35:47.185Z,5.30
2023-04-17T11:38:17.763Z,5.37
2023-04-17T11:40:46.619Z,5.50
2023-04-17T11:43:13.869Z,6.20
2023-04-17T11:45:42.410Z,5.40
2023-04-17T11:48:11.404Z,5.27
2023-04-17T11:50:38.899Z,6.07
2023-04-17T11:53:07.343Z,5.50
2023-04-17T11:55:35.632Z,5.63
2023-04-17T11:58:05.521Z,5.23
2023-04-17T12:00:33.134Z,4.83
2023-04-17T12:03:01.463Z,5.50
2023-04-17T12:05:30.561Z,5.37
2023-04-17T12:08:02.390Z,5.40
2023-04-17T12:10:41.976Z,4.90
2023-04-17T12:13:09.483Z,4.80
2023-04-17T12:15:37.023Z,4.70
2023-04-17T12:18:05.785Z,4.60
2023-04-17T12:20:33.881Z,4.50
2023-04-17T12:23:00.996Z,3.97
2023-04-17T12:25:28.034Z,4.20
2023-04-17T12:27:57.285Z,3.80
2023-04-17T12:30:24.577Z,3.10
2023-04-17T12:32:52.279Z,2.77
2023-04-17T12:35:19.408Z,3.40
2023-04-17T12:37:48.634Z,3.17
2023-04-17T12:40:16.860Z,3.50
2023-04-17T12:42:49.316Z,3.57
2023-04-17T12:45:18.604Z,4.13
2023-04-17T12:47:45.577Z,4.20
2023-04-17T12:50:12.858Z,4.40
2023-04-17T12:52:40.526Z,4.33
2023-04-17T12:55:08.283Z,4.30
2023-04-17T12:57:36.596Z,4.10
2023-04-17T13:00:06.232Z,3.30
2023-04-17T13:02:34.892Z,3.20
2023-04-17T13:05:02.603Z,2.73
2023-04-17T13:07:29.629Z,3.20
2023-04-17T13:09:56.921Z,3.87
2023-04-17T13:12:24.032Z,3.50
2023-04-17T13:14:51.411Z,3.67
2023-04-17T13:17:18.524Z,3.30
2023-04-17T13:19:47.045Z,3.90
2023-04-17T13:22:15.546Z,3.70
2023-04-17T13:24:42.497Z,4.63
2023-04-17T13:27:09.870Z,4.27
2023-04-17T13:29:36.807Z,4.90
2023-04-17T13:32:03.864Z,4.43
2023-04-17T13:34:30.822Z,4.83
2023-04-17T13:36:59.162Z,4.60
2023-04-17T13:39:26.326Z,5.10
2023-04-17T13:41:53.261Z,4.53
2023-04-17T13:44:20.106Z,5.20
2023-04-17T13:46:47.164Z,5.33
2023-04-17T13:49:15.081Z,5.10
2023-04-17T13:51:42.176Z,4.50
2023-04-17T13:54:10.553Z,4.90
2023-04-17T13:56:37.469Z,5.17
2023-04-17T13:59:05.821Z,4.20
2023-04-17T14:01:32.947Z,4.20
2023-04-17T14:04:02.911Z,4.27
2023-04-17T14:06:31.871Z,4.17
2023-04-17T14:08:58.894Z,4.03
2023-04-17T14:11:27.180Z,3.80
2023-04-17T14:13:54.128Z,3.63
2023-04-17T14:16:21.316Z,4.03
2023-04-17T14:18:49.273Z,3.90
2023-04-17T14:21:17.108Z,4.20
2023-04-17T14:23:44.952Z,3.80
2023-04-17T14:26:12.597Z,3.87
2023-04-17T14:28:40.942Z,3.90
2023-04-17T14:31:08.056Z,3.87
2023-04-17T14:33:35.026Z,4.50
2023-04-17T14:36:03.325Z,4.47
2023-04-17T14:38:31.425Z,4.50
2023-04-17T14:40:58.309Z,4.30
2023-04-17T14:43:25.451Z,4.43
2023-04-17T14:45:53.709Z,4.77
2023-04-17T14:48:20.945Z,4.53
2023-04-17T14:50:47.881Z,4.57
2023-04-17T14:53:14.794Z,4.40
2023-04-17T14:55:42.128Z,4.80
2023-04-17T14:58:09.310Z,4.13
2023-04-17T15:00:36.288Z,4.47
2023-04-17T15:03:04.620Z,4.30
2023-04-17T15:05:31.591Z,4.33
2023-04-17T15:07:58.508Z,4.47
2023-04-17T15:10:26.062Z,4.37
2023-04-17T15:12:55.072Z,4.30
2023-04-17T15:15:21.926Z,3.90
2023-04-17T15:17:48.817Z,3.90
2023-04-17T15:20:17.033Z,4.40
2023-04-17T15:22:43.987Z,4.20
2023-04-17T15:25:10.868Z,4.17
2023-04-17T15:27:37.781Z,3.93
2023-04-17T15:30:08.808Z,3.90
2023-04-17T15:32:35.746Z,4.00
2023-04-17T15:35:02.879Z,4.30
2023-04-17T15:37:31.201Z,3.83
2023-04-17T15:39:58.188Z,4.17
2023-04-17T15:42:27.098Z,3.97
2023-04-17T15:44:55.469Z,3.63
2023-04-17T15:47:22.435Z,4.10
2023-04-17T15:49:49.406Z,3.80
2023-04-17T15:52:16.372Z,3.90
2023-04-17T15:54:44.651Z,3.70
2023-04-17T15:57:11.509Z,4.20
2023-04-17T15:59:38.352Z,3.50
2023-04-17T16:02:05.997Z,4.27
2023-04-17T16:04:33.116Z,3.80
2023-04-17T16:07:00.033Z,3.90
2023-04-17T16:09:26.894Z,3.83
2023-04-17T16:11:55.133Z,4.80
2023-04-17T16:14:22.063Z,4.27
2023-04-17T16:16:48.924Z,3.90
2023-04-17T16:19:15.817Z,3.87
2023-04-17T16:21:42.728Z,3.93
2023-04-17T16:24:09.650Z,3.80
2023-04-17T16:26:36.909Z,3.80
2023-04-17T16:29:05.294Z,3.90
2023-04-17T16:31:32.219Z,4.00
2023-04-17T16:33:59.118Z,3.70
2023-04-17T16:36:27.228Z,3.80
2023-04-17T16:38:54.197Z,3.47
2023-04-17T16:41:21.084Z,3.50
2023-04-17T16:43:47.943Z,3.80
2023-04-17T16:46:23.918Z,3.43
2023-04-17T16:48:55.559Z,3.60
2023-04-17T16:51:23.677Z,3.60
2023-04-17T16:53:50.903Z,3.57
2023-04-17T16:56:18.056Z,3.50
2023-04-17T16:58:44.916Z,3.20
2023-04-17T17:01:11.939Z,3.43
2023-04-17T17:03:43.090Z,3.20
2023-04-17T17:06:10.266Z,3.03
2023-04-17T17:08:37.168Z,3.40
2023-04-17T17:11:04.866Z,3.10
2023-04-17T17:13:31.785Z,2.93
2023-04-17T17:15:58.705Z,3.03
2023-04-17T17:18:25.673Z,3.27
2023-04-17T17:20:56.010Z,3.40
2023-04-17T17:23:23.036Z,2.87
2023-04-17T17:25:50.020Z,3.40
2023-04-17T17:28:16.974Z,3.03
2023-04-17T17:30:43.938Z,3.17
2023-04-17T17:33:10.943Z,2.90
2023-04-17T17:35:37.879Z,3.20
2023-04-17T17:38:06.113Z,2.80
2023-04-17T17:40:33.028Z,2.80
2023-04-17T17:42:59.926Z,2.70
2023-04-17T17:45:26.766Z,2.97
2023-04-17T17:47:53.766Z,3.13
2023-04-17T17:50:20.737Z,3.47
2023-04-17T17:52:48.127Z,4.20
2023-04-17T17:55:16.573Z,4.73
2023-04-17T17:57:49.433Z,4.20
2023-04-17T18:00:17.568Z,2.83
2023-04-17T18:02:44.537Z,2.93
2023-04-17T18:05:11.554Z,2.90
2023-04-17T18:07:40.786Z,2.87
2023-04-17T18:10:08.946Z,2.90
2023-04-17T18:12:37.194Z,2.50
2023-04-17T18:15:04.574Z,2.30
2023-04-17T18:17:32.355Z,2.70
2023-04-17T18:19:59.230Z,2.73
2023-04-17T18:22:26.344Z,2.57
2023-04-17T18:24:54.205Z,2.40
2023-04-17T18:27:21.132Z,2.27
2023-04-17T18:29:49.351Z,2.37
2023-04-17T18:32:16.262Z,2.07
2023-04-17T18:34:43.865Z,2.27
2023-04-17T18:37:10.749Z,2.00
2023-04-17T18:39:37.636Z,2.20
2023-04-17T18:42:04.665Z,1.70
2023-04-17T18:44:31.582Z,1.60
2023-04-17T18:46:59.913Z,1.90
2023-04-17T18:49:27.569Z,1.80
2023-04-17T18:51:54.535Z,1.60
2023-04-17T18:54:21.890Z,1.60
2023-04-17T18:56:49.039Z,1.60
2023-04-17T18:59:15.950Z,1.80
2023-04-17T19:01:42.946Z,1.77
2023-04-17T19:04:11.521Z,1.90
2023-04-17T19:06:38.548Z,1.80
2023-04-17T19:09:05.497Z,2.00
2023-04-17T19:11:32.487Z,1.90
2023-04-17T19:13:59.337Z,2.00
2023-04-17T19:16:26.269Z,1.50
2023-04-17T19:18:53.154Z,1.73
2023-04-17T19:21:21.521Z,1.70
2023-04-17T19:23:48.584Z,1.80
2023-04-17T19:26:16.973Z,1.47
2023-04-17T19:28:43.862Z,1.80
2023-04-17T19:31:10.792Z,1.80
2023-04-17T19:33:37.763Z,1.83
2023-04-17T19:36:04.629Z,1.80
2023-04-17T19:38:32.921Z,1.90
2023-04-17T19:41:12.193Z,2.10
2023-04-17T19:43:39.043Z,1.97
2023-04-17T19:46:05.982Z,1.90
2023-04-17T19:48:32.869Z,2.00
2023-04-17T19:51:00.282Z,1.90
2023-04-17T19:53:30.339Z,2.13
2023-04-17T19:55:58.658Z,2.30
2023-04-17T19:58:25.518Z,2.53
2023-04-17T20:00:52.358Z,2.60
2023-04-17T20:03:19.337Z,2.23
2023-04-17T20:05:46.429Z,2.17
2023-04-17T20:08:14.147Z,2.73
2023-04-17T20:10:41.128Z,2.47
2023-04-17T20:13:10.250Z,2.60
2023-04-17T20:15:37.307Z,2.90
2023-04-17T20:18:06.277Z,2.70
2023-04-17T20:20:34.482Z,2.90
2023-04-17T20:23:02.490Z,2.80
2023-04-17T20:25:29.396Z,3.00
2023-04-17T20:27:56.519Z,3.10
2023-04-17T20:30:24.946Z,2.70
2023-04-17T20:32:51.960Z,3.33
2023-04-17T20:35:24.823Z,3.23
2023-04-17T20:37:52.552Z,3.43
2023-04-17T20:40:19.762Z,3.37
2023-04-17T20:42:47.478Z,3.60
2023-04-17T20:45:14.656Z,3.40
2023-04-17T20:47:56.113Z,3.80
2023-04-17T20:50:24.942Z,3.70
2023-04-17T20:52:57.593Z,3.47
2023-04-17T20:55:24.631Z,3.63
2023-04-17T20:57:51.484Z,3.80
2023-04-17T21:00:23.262Z,4.00
2023-04-17T21:02:54.405Z,3.67
2023-04-17T21:05:23.904Z,3.60
2023-04-17T21:07:51.746Z,4.17
2023-04-17T21:10:19.930Z,4.33
2023-04-17T21:12:47.013Z,4.27
2023-04-17T21:15:13.956Z,4.57
2023-04-17T21:17:40.879Z,4.57
2023-04-17T21:20:12.041Z,5.10
2023-04-17T21:22:38.971Z,5.17
2023-04-17T21:25:07.041Z,4.80
2023-04-17T21:27:33.932Z,4.77
2023-04-17T21:30:00.946Z,5.20
2023-04-17T21:32:27.908Z,5.47
2023-04-17T21:34:54.820Z,5.23
2023-04-17T21:37:23.031Z,5.63
2023-04-17T21:39:49.929Z,5.83
2023-04-17T21:42:17.225Z,5.70
2023-04-17T21:44:44.143Z,5.90
2023-04-17T21:47:11.295Z,6.17
2023-04-17T21:49:38.105Z,5.80
2023-04-17T21:52:04.956Z,6.13
2023-04-17T21:54:33.495Z,5.83
2023-04-17T21:57:00.402Z,6.00
2023-04-17T21:59:27.301Z,6.57
2023-04-17T22:01:54.183Z,6.70
2023-04-17T22:04:21.074Z,6.67
2023-04-17T22:06:48.102Z,7.13
2023-04-17T22:09:15.138Z,7.37
2023-04-17T22:11:43.355Z,7.27
2023-04-17T22:14:10.199Z,7.93
2023-04-17T22:16:37.100Z,7.83
2023-04-17T22:19:04.033Z,8.23
2023-04-17T22:21:30.908Z,8.17
2023-04-17T22:23:57.717Z,8.20
2023-04-17T22:26:26.782Z,8.23
2023-04-17T22:28:54.970Z,8.40
2023-04-17T22:31:21.884Z,8.67
2023-04-17T22:33:48.678Z,8.53
2023-04-17T22:36:15.523Z,8.93
2023-04-17T22:38:42.350Z,9.27
2023-04-17T22:41:09.137Z,8.50
2023-04-17T22:43:35.982Z,8.67
2023-04-17T22:46:04.192Z,9.90
2023-04-17T22:48:31.120Z,8.87
2023-04-17T22:50:57.988Z,9.53
2023-04-17T22:53:24.803Z,9.07
2023-04-17T22:56:00.388Z,8.83
2023-04-17T22:58:27.187Z,9.67
2023-04-17T23:00:54.018Z,9.17
2023-04-17T23:03:22.267Z,9.93
2023-04-17T23:05:49.166Z,9.07
2023-04-17T23:08:16.286Z,9.50
2023-04-17T23:10:45.785Z,9.83
2023-04-17T23:13:15.496Z,9.47
2023-04-17T23:15:42.792Z,9.80
2023-04-17T23:18:10.835Z,9.83
2023-04-17T23:20:39.303Z,10.00
2023-04-17T23:23:06.335Z,9.97
2023-04-17T23:25:34.642Z,10.07
2023-04-17T23:28:01.864Z,9.93
2023-04-17T23:30:29.206Z,10.17
2023-04-17T23:32:56.554Z,10.20
2023-04-17T23:35:30.619Z,10.50
2023-04-17T23:38:00.461Z,10.43
2023-04-17T23:40:28.171Z,9.83
2023-04-17T23:42:55.559Z,10.27
2023-04-17T23:45:22.763Z,10.97
2023-04-17T23:47:50.064Z,10.53
2023-04-17T23:50:17.482Z,11.50
2023-04-17T23:52:44.558Z,10.17
2023-04-17T23:55:13.230Z,10.27
2023-04-17T23:57:40.516Z,10.13
